createdAt,value
2022-09-07T00:01:19.093Z,69.12
2022-09-07T00:03:47.570Z,69.11
2022-09-07T00:06:16.113Z,68.97
2022-09-07T00:08:44.434Z,69.02
2022-09-07T00:11:17.809Z,69.06
2022-09-07T00:13:49.598Z,68.94
2022-09-07T00:16:25.811Z,68.99
2022-09-07T00:19:01.881Z,68.98
2022-09-07T00:21:31.245Z,68.97
2022-09-07T00:23:59.798Z,69.16
2022-09-07T00:26:31.154Z,69.08
2022-09-07T00:29:02.526Z,69.06
2022-09-07T00:31:32.092Z,69.20
2022-09-07T00:34:02.305Z,69.12
2022-09-07T00:36:30.966Z,69.09
2022-09-07T00:38:59.330Z,69.14
2022-09-07T00:41:27.714Z,69.19
2022-09-07T00:44:18.463Z,69.05
2022-09-07T00:46:47.163Z,69.07
2022-09-07T00:49:21.762Z,69.25
2022-09-07T00:51:57.943Z,69.32
2022-09-07T00:54:47.653Z,69.24
2022-09-07T00:57:16.168Z,69.17
2022-09-07T00:59:50.449Z,69.26
2022-09-07T01:02:20.145Z,69.28
2022-09-07T01:04:53.543Z,69.28
2022-09-07T01:07:21.885Z,69.52
2022-09-07T01:09:50.977Z,69.39
2022-09-07T01:12:19.787Z,69.55
2022-09-07T01:14:53.045Z,69.51
2022-09-07T01:17:39.179Z,69.51
2022-09-07T01:20:29.074Z,69.56
2022-09-07T01:23:32.824Z,69.67
2022-09-07T01:26:45.218Z,69.81
2022-09-07T01:29:28.960Z,69.84
2022-09-07T01:32:09.814Z,69.87
2022-09-07T01:34:39.244Z,69.93
2022-09-07T01:37:28.780Z,70.06
2022-09-07T01:40:11.790Z,70.25
2022-09-07T01:42:51.641Z,70.13
2022-09-07T01:45:24.948Z,70.20
2022-09-07T01:47:58.670Z,70.21
2022-09-07T01:50:39.423Z,70.34
2022-09-07T01:53:23.366Z,70.32
2022-09-07T01:56:16.792Z,70.40
2022-09-07T01:58:58.596Z,70.45
2022-09-07T02:01:35.553Z,70.50
2022-09-07T02:04:15.976Z,70.42
2022-09-07T02:06:58.425Z,70.40
2022-09-07T02:09:37.327Z,70.55
2022-09-07T02:12:16.962Z,70.43
2022-09-07T02:14:54.399Z,70.52
2022-09-07T02:17:31.795Z,70.64
2022-09-07T02:20:26.954Z,70.50
2022-09-07T02:23:00.258Z,70.53
2022-09-07T02:25:37.979Z,70.47
2022-09-07T02:28:16.196Z,70.68
2022-09-07T02:30:44.719Z,70.64
2022-09-07T02:33:13.114Z,70.75
2022-09-07T02:35:41.560Z,70.79
2022-09-07T02:38:10.011Z,70.84
2022-09-07T02:40:38.680Z,70.61
2022-09-07T02:43:10.478Z,70.57
2022-09-07T02:46:19.415Z,70.78
2022-09-07T02:49:28.213Z,70.75
2022-09-07T02:52:17.289Z,70.50
2022-09-07T02:55:24.618Z,70.64
2022-09-07T02:58:04.589Z,70.65
2022-09-07T03:00:57.959Z,70.71
2022-09-07T03:04:00.893Z,70.77
2022-09-07T03:06:35.101Z,70.77
2022-09-07T03:09:11.102Z,70.89
2022-09-07T03:11:39.476Z,70.74
2022-09-07T03:14:24.606Z,70.75
2022-09-07T03:16:57.301Z,70.97
2022-09-07T03:19:26.295Z,71.02
2022-09-07T03:21:54.779Z,71.03
2022-09-07T03:24:23.086Z,71.07
2022-09-07T03:26:52.132Z,71.29
2022-09-07T03:29:20.453Z,71.37
2022-09-07T03:31:48.985Z,71.31
2022-09-07T03:34:17.501Z,71.48
2022-09-07T03:36:45.823Z,71.45
2022-09-07T03:39:14.734Z,71.66
2022-09-07T03:41:44.295Z,71.75
2022-09-07T03:44:12.568Z,71.76
2022-09-07T03:46:41.067Z,71.85
2022-09-07T03:49:09.340Z,71.97
2022-09-07T03:51:37.637Z,72.00
2022-09-07T03:54:06.487Z,71.94
2022-09-07T03:56:35.376Z,72.07
2022-09-07T03:59:03.761Z,72.06
2022-09-07T04:01:32.125Z,72.12
2022-09-07T04:04:02.927Z,72.18
2022-09-07T04:06:32.490Z,72.07
2022-09-07T04:09:07.733Z,72.10
2022-09-07T04:11:35.969Z,72.24
2022-09-07T04:14:04.420Z,72.15
2022-09-07T04:16:33.353Z,72.03
2022-09-07T04:19:01.878Z,72.12
2022-09-07T04:21:33.265Z,72.11
2022-09-07T04:24:01.837Z,72.05
2022-09-07T04:26:33.871Z,72.10
2022-09-07T04:29:02.963Z,72.12
2022-09-07T04:31:33.233Z,72.16
2022-09-07T04:34:02.653Z,72.01
2022-09-07T04:36:31.508Z,72.08
2022-09-07T04:39:03.080Z,72.15
2022-09-07T04:41:34.244Z,72.23
2022-09-07T04:44:04.982Z,72.19
2022-09-07T04:46:36.899Z,72.21
2022-09-07T04:49:10.503Z,72.23
2022-09-07T04:51:42.590Z,72.22
2022-09-07T04:54:11.487Z,72.33
2022-09-07T04:56:40.252Z,72.32
2022-09-07T04:59:08.539Z,72.46
2022-09-07T05:01:37.210Z,72.34
2022-09-07T05:04:05.804Z,72.44
2022-09-07T05:06:34.631Z,72.48
2022-09-07T05:09:03.395Z,72.58
2022-09-07T05:11:31.717Z,72.64
2022-09-07T05:14:03.053Z,72.68
2022-09-07T05:16:31.651Z,72.82
2022-09-07T05:19:04.061Z,72.81
2022-09-07T05:21:34.934Z,72.82
2022-09-07T05:24:05.225Z,72.93
2022-09-07T05:26:37.037Z,72.98
2022-09-07T05:31:55.004Z,73.07
2022-09-07T05:34:32.217Z,72.96
2022-09-07T05:37:02.193Z,72.90
2022-09-07T05:39:31.988Z,72.99
2022-09-07T05:42:00.389Z,72.98
2022-09-07T05:44:44.968Z,72.82
2022-09-07T05:47:14.571Z,72.81
2022-09-07T05:49:42.969Z,72.78
2022-09-07T05:52:12.059Z,72.61
2022-09-07T05:54:40.584Z,72.45
2022-09-07T05:57:12.703Z,72.55
2022-09-07T05:59:41.154Z,72.43
2022-09-07T06:02:17.185Z,72.41
2022-09-07T06:04:45.526Z,72.29
2022-09-07T06:07:22.971Z,72.31
2022-09-07T06:12:40.207Z,72.20
2022-09-07T06:15:09.660Z,72.18
2022-09-07T06:17:38.103Z,72.05
2022-09-07T06:23:21.806Z,72.00
2022-09-07T06:25:50.473Z,71.99
2022-09-07T06:28:19.036Z,71.95
2022-09-07T06:30:47.500Z,71.95
2022-09-07T06:33:18.083Z,71.79
2022-09-07T06:36:06.556Z,71.67
2022-09-07T06:38:37.644Z,71.62
2022-09-07T06:44:07.413Z,71.39
2022-09-07T06:49:25.783Z,71.41
2022-09-07T06:51:54.134Z,71.45
2022-09-07T06:57:10.787Z,71.18
2022-09-07T06:59:39.747Z,71.06
2022-09-07T07:02:12.151Z,71.05
2022-09-07T07:04:41.426Z,71.10
2022-09-07T07:07:14.093Z,70.76
2022-09-07T07:09:42.632Z,70.61
2022-09-07T07:12:11.372Z,70.66
2022-09-07T07:14:44.730Z,70.74
2022-09-07T07:17:13.659Z,70.60
2022-09-07T07:19:42.029Z,70.41
2022-09-07T07:22:29.468Z,70.25
2022-09-07T07:24:59.289Z,70.30
2022-09-07T07:27:31.558Z,70.43
2022-09-07T07:30:00.021Z,70.26
2022-09-07T07:32:28.341Z,70.09
2022-09-07T07:34:56.547Z,70.04
2022-09-07T07:37:28.212Z,70.10
2022-09-07T07:42:45.471Z,69.83
2022-09-07T07:48:03.328Z,69.49
2022-09-07T07:50:32.606Z,69.49
2022-09-07T07:55:51.055Z,69.29
2022-09-07T07:58:19.969Z,69.09
2022-09-07T08:00:54.682Z,68.92
2022-09-07T08:03:24.877Z,69.25
2022-09-07T08:05:55.150Z,69.38
2022-09-07T08:08:24.262Z,69.35
2022-09-07T08:10:52.995Z,69.42
2022-09-07T08:13:21.600Z,69.30
2022-09-07T08:15:50.145Z,69.28
2022-09-07T08:18:18.494Z,69.14
2022-09-07T08:20:46.784Z,69.13
2022-09-07T08:23:15.469Z,69.16
2022-09-07T08:25:55.051Z,69.15
2022-09-07T08:28:28.902Z,69.06
2022-09-07T08:30:58.182Z,68.96
2022-09-07T08:33:26.637Z,69.10
2022-09-07T08:35:58.050Z,69.12
2022-09-07T08:38:29.115Z,69.01
2022-09-07T08:40:58.741Z,68.96
2022-09-07T08:43:55.145Z,69.05
2022-09-07T08:46:45.416Z,68.89
2022-09-07T08:55:39.442Z,68.19
2022-09-07T08:58:47.605Z,68.13
2022-09-07T09:01:33.303Z,67.88
2022-09-07T09:04:23.549Z,67.79
2022-09-07T09:07:22.727Z,67.57
2022-09-07T09:10:16.114Z,66.90
2022-09-07T09:13:19.310Z,67.09
2022-09-07T09:18:54.271Z,66.74
2022-09-07T09:21:22.649Z,66.51
2022-09-07T09:23:55.170Z,66.09
2022-09-07T09:26:29.751Z,65.98
2022-09-07T09:28:58.090Z,65.70
2022-09-07T09:31:40.949Z,65.35
2022-09-07T09:34:17.563Z,65.32
2022-09-07T09:36:52.607Z,65.01
2022-09-07T09:39:37.961Z,64.59
2022-09-07T09:42:12.392Z,63.92
2022-09-07T09:44:42.330Z,64.04
2022-09-07T09:47:36.142Z,63.76
2022-09-07T09:53:40.629Z,63.19
2022-09-07T09:56:09.445Z,62.97
2022-09-07T10:01:35.969Z,62.33
2022-09-07T10:04:29.844Z,62.05
2022-09-07T10:09:26.418Z,60.77
2022-09-07T10:12:08.495Z,60.20
2022-09-07T10:14:41.831Z,59.53
2022-09-07T10:17:41.620Z,59.66
2022-09-07T10:20:16.031Z,58.99
2022-09-07T10:22:53.379Z,58.56
2022-09-07T10:25:39.779Z,58.21
2022-09-07T10:28:14.212Z,57.73
2022-09-07T10:31:14.761Z,57.47
2022-09-07T10:34:29.554Z,57.42
2022-09-07T10:37:11.499Z,57.07
2022-09-07T10:43:21.809Z,56.77
2022-09-07T10:52:59.211Z,55.93
2022-09-07T10:55:43.324Z,55.55
2022-09-07T11:01:57.432Z,54.97
2022-09-07T11:04:51.778Z,54.84
2022-09-07T11:07:44.486Z,54.69
2022-09-07T11:10:44.177Z,54.53
2022-09-07T11:13:20.002Z,54.01
2022-09-07T11:16:05.323Z,54.01
2022-09-07T11:18:47.031Z,54.15
2022-09-07T11:24:28.293Z,53.69
2022-09-07T11:27:04.296Z,52.98
2022-09-07T11:29:43.664Z,52.83
2022-09-07T11:32:35.121Z,52.50
2022-09-07T11:35:29.719Z,52.11
2022-09-07T11:41:30.930Z,51.90
2022-09-07T11:44:51.349Z,51.96
2022-09-07T11:47:34.252Z,51.69
2022-09-07T11:50:02.675Z,51.63
2022-09-07T11:52:45.785Z,51.22
2022-09-07T11:55:40.984Z,51.10
2022-09-07T11:59:27.331Z,50.80
2022-09-07T12:02:57.768Z,50.49
2022-09-07T12:06:05.428Z,50.54
2022-09-07T12:09:44.934Z,49.90
2022-09-07T12:12:28.607Z,49.87
2022-09-07T12:19:01.597Z,49.63
2022-09-07T12:21:43.076Z,49.07
2022-09-07T12:24:41.117Z,48.92
2022-09-07T12:27:21.640Z,48.84
2022-09-07T12:32:57.713Z,48.58
2022-09-07T12:35:26.786Z,48.34
2022-09-07T12:38:00.716Z,48.68
2022-09-07T12:40:34.048Z,49.09
2022-09-07T12:43:14.591Z,49.27
2022-09-07T12:45:42.920Z,49.27
2022-09-07T12:48:17.258Z,49.02
2022-09-07T12:54:38.020Z,48.76
2022-09-07T12:58:00.418Z,48.71
2022-09-07T13:00:56.953Z,48.43
2022-09-07T13:04:30.706Z,48.06
2022-09-07T13:07:44.636Z,48.12
2022-09-07T13:10:36.027Z,47.70
2022-09-07T13:16:17.639Z,46.98
2022-09-07T13:18:47.648Z,47.24
2022-09-07T13:21:18.082Z,47.04
2022-09-07T13:27:52.555Z,46.99
2022-09-07T13:30:39.498Z,47.04
2022-09-07T13:33:30.165Z,46.86
2022-09-07T13:36:06.335Z,46.32
2022-09-07T13:38:41.506Z,46.04
2022-09-07T13:41:17.730Z,45.64
2022-09-07T13:43:49.667Z,45.75
2022-09-07T13:47:07.825Z,45.78
2022-09-07T13:50:42.965Z,46.36
2022-09-07T13:53:41.475Z,46.16
2022-09-07T13:56:35.731Z,46.21
2022-09-07T13:59:27.746Z,45.92
2022-09-07T14:01:57.172Z,45.57
2022-09-07T14:04:35.540Z,45.48
2022-09-07T14:07:15.371Z,45.10
2022-09-07T14:09:43.707Z,45.23
2022-09-07T14:12:22.209Z,45.29
2022-09-07T14:15:57.679Z,45.57
2022-09-07T14:18:40.602Z,45.11
2022-09-07T14:21:19.155Z,45.17
2022-09-07T14:23:53.454Z,45.14
2022-09-07T14:26:23.488Z,45.04
2022-09-07T14:28:56.957Z,44.86
2022-09-07T14:31:30.953Z,44.90
2022-09-07T14:34:02.329Z,44.31
2022-09-07T14:36:58.941Z,44.57
2022-09-07T14:39:31.485Z,44.27
2022-09-07T14:42:04.170Z,44.36
2022-09-07T14:44:42.954Z,44.25
2022-09-07T14:47:33.783Z,44.07
2022-09-07T14:50:06.950Z,43.81
2022-09-07T14:56:25.951Z,43.23
2022-09-07T14:59:21.053Z,43.45
2022-09-07T15:02:12.823Z,43.49
2022-09-07T15:05:29.236Z,43.13
2022-09-07T15:08:57.718Z,42.97
2022-09-07T15:11:36.691Z,43.06
2022-09-07T15:14:13.735Z,42.91
2022-09-07T15:20:07.747Z,43.11
2022-09-07T15:22:54.414Z,42.86
2022-09-07T15:25:23.069Z,42.76
2022-09-07T15:31:43.565Z,42.94
2022-09-07T15:34:45.698Z,42.47
2022-09-07T15:40:26.360Z,42.35
2022-09-07T15:43:06.818Z,42.57
2022-09-07T15:45:43.348Z,42.38
2022-09-07T15:48:23.270Z,42.14
2022-09-07T15:50:53.973Z,42.32
2022-09-07T15:56:11.518Z,41.99
2022-09-07T15:58:40.190Z,41.89
2022-09-07T16:03:59.168Z,42.09
2022-09-07T16:06:31.126Z,41.91
2022-09-07T16:09:06.143Z,41.92
2022-09-07T16:11:51.280Z,41.97
2022-09-07T16:14:56.307Z,41.75
2022-09-07T16:17:47.852Z,41.72
2022-09-07T16:20:20.369Z,41.72
2022-09-07T16:26:05.415Z,41.89
2022-09-07T16:28:37.675Z,42.20
2022-09-07T16:31:09.434Z,42.48
2022-09-07T16:33:40.675Z,42.90
2022-09-07T16:36:17.353Z,43.18
2022-09-07T16:38:48.557Z,43.71
2022-09-07T16:41:30.467Z,43.53
2022-09-07T16:44:05.515Z,43.57
2022-09-07T16:46:36.989Z,43.70
2022-09-07T16:49:07.099Z,44.25
2022-09-07T16:51:43.108Z,44.70
2022-09-07T16:54:14.296Z,45.09
2022-09-07T16:56:42.697Z,45.67
2022-09-07T16:59:29.524Z,46.16
2022-09-07T17:01:58.042Z,46.86
2022-09-07T17:04:26.581Z,47.37
2022-09-07T17:06:55.112Z,47.91
2022-09-07T17:09:26.770Z,48.34
2022-09-07T17:11:55.101Z,48.86
2022-09-07T17:14:23.525Z,49.36
2022-09-07T17:16:54.035Z,49.88
2022-09-07T17:19:44.799Z,50.45
2022-09-07T17:22:45.715Z,50.94
2022-09-07T17:37:40.062Z,53.70
2022-09-07T17:40:09.594Z,54.52
2022-09-07T17:45:27.969Z,55.35
2022-09-07T17:47:56.696Z,55.89
2022-09-07T17:50:25.080Z,56.22
2022-09-07T17:52:53.383Z,56.38
2022-09-07T17:55:30.832Z,56.82
2022-09-07T17:58:04.684Z,57.16
2022-09-07T18:00:34.529Z,57.90
2022-09-07T18:03:03.734Z,58.03
2022-09-07T18:05:33.625Z,58.34
2022-09-07T18:08:02.361Z,58.69
2022-09-07T18:13:33.564Z,59.55
2022-09-07T18:16:20.647Z,60.09
2022-09-07T18:18:50.563Z,60.40
2022-09-07T18:21:26.048Z,60.49
2022-09-07T18:23:56.782Z,61.02
2022-09-07T18:26:26.795Z,61.31
2022-09-07T18:29:04.801Z,61.62
2022-09-07T18:31:46.872Z,61.85
2022-09-07T18:34:16.309Z,62.16
2022-09-07T18:36:45.004Z,62.38
2022-09-07T18:39:13.835Z,62.76
2022-09-07T18:41:42.624Z,62.96
2022-09-07T18:47:31.689Z,63.49
2022-09-07T18:50:02.465Z,63.75
2022-09-07T18:55:19.399Z,64.24
2022-09-07T18:57:48.697Z,64.44
2022-09-07T19:00:17.974Z,64.79
2022-09-07T19:02:50.291Z,65.03
2022-09-07T19:08:09.338Z,65.52
2022-09-07T19:10:38.382Z,65.74
2022-09-07T19:13:06.712Z,65.96
2022-09-07T19:15:37.698Z,66.22
2022-09-07T19:18:08.359Z,66.34
2022-09-07T19:20:37.397Z,66.75
2022-09-07T19:23:06.908Z,66.91
2022-09-07T19:25:40.913Z,67.16
2022-09-07T19:28:09.323Z,67.18
2022-09-07T19:30:38.098Z,67.49
2022-09-07T19:33:10.061Z,67.72
2022-09-07T19:35:38.473Z,67.92
2022-09-07T19:38:06.812Z,68.09
2022-09-07T19:40:35.421Z,68.40
2022-09-07T19:43:03.972Z,68.51
2022-09-07T19:45:32.290Z,68.58
2022-09-07T19:48:00.555Z,68.85
2022-09-07T19:50:28.913Z,69.00
2022-09-07T19:52:57.693Z,69.22
2022-09-07T19:55:26.052Z,69.32
2022-09-07T19:57:54.390Z,69.45
2022-09-07T20:00:24.724Z,69.63
2022-09-07T20:02:54.213Z,69.89
2022-09-07T20:05:23.893Z,70.11
2022-09-07T20:07:52.332Z,70.26
2022-09-07T20:10:20.862Z,70.46
2022-09-07T20:12:49.140Z,70.51
2022-09-07T20:15:17.430Z,70.67
2022-09-07T20:17:47.829Z,70.83
2022-09-07T20:20:16.589Z,71.02
2022-09-07T20:22:45.182Z,71.15
2022-09-07T20:25:13.797Z,71.34
2022-09-07T20:27:42.184Z,71.45
2022-09-07T20:30:11.388Z,71.63
2022-09-07T20:32:39.820Z,71.79
2022-09-07T20:35:08.752Z,71.83
2022-09-07T20:37:37.171Z,72.05
2022-09-07T20:40:06.500Z,72.09
2022-09-07T20:42:34.917Z,72.26
2022-09-07T20:45:03.724Z,72.45
2022-09-07T20:47:32.050Z,72.56
2022-09-07T20:50:00.415Z,72.81
2022-09-07T20:52:28.784Z,72.91
2022-09-07T20:54:57.088Z,73.00
2022-09-07T20:57:25.610Z,73.15
2022-09-07T20:59:53.984Z,73.30
2022-09-07T21:02:22.362Z,73.47
2022-09-07T21:04:51.251Z,73.65
2022-09-07T21:07:19.594Z,73.74
2022-09-07T21:09:47.981Z,73.94
2022-09-07T21:12:16.452Z,74.12
2022-09-07T21:14:46.144Z,74.18
2022-09-07T21:17:14.429Z,74.37
2022-09-07T21:19:42.733Z,74.58
2022-09-07T21:22:11.078Z,74.59
2022-09-07T21:24:39.331Z,74.71
2022-09-07T21:27:07.802Z,75.03
2022-09-07T21:29:36.329Z,75.02
2022-09-07T21:32:04.887Z,75.06
2022-09-07T21:34:33.299Z,75.20
2022-09-07T21:37:01.561Z,75.18
2022-09-07T21:39:29.916Z,75.47
2022-09-07T21:41:58.265Z,75.62
2022-09-07T21:44:26.578Z,75.60
2022-09-07T21:46:55.120Z,75.63
2022-09-07T21:49:23.517Z,75.95
2022-09-07T21:51:51.786Z,76.07
2022-09-07T21:54:20.110Z,76.23
2022-09-07T21:56:49.132Z,76.40
2022-09-07T21:59:17.387Z,76.47
2022-09-07T22:01:45.722Z,76.58
2022-09-07T22:04:14.787Z,76.70
2022-09-07T22:06:43.910Z,76.90
2022-09-07T22:09:12.271Z,76.92
2022-09-07T22:11:45.283Z,77.17
2022-09-07T22:14:15.847Z,77.43
2022-09-07T22:16:44.461Z,77.50
2022-09-07T22:19:12.780Z,77.62
2022-09-07T22:21:41.305Z,77.82
2022-09-07T22:24:15.029Z,77.74
2022-09-07T22:26:43.480Z,77.97
2022-09-07T22:29:12.642Z,78.02
2022-09-07T22:31:42.351Z,78.18
2022-09-07T22:34:11.085Z,78.26
2022-09-07T22:36:43.308Z,78.41
2022-09-07T22:39:19.115Z,78.61
2022-09-07T22:41:48.236Z,78.79
2022-09-07T22:44:18.735Z,79.00
2022-09-07T22:46:47.784Z,79.17
2022-09-07T22:49:17.422Z,79.28
2022-09-07T22:51:47.243Z,79.25
2022-09-07T22:54:15.560Z,79.35
2022-09-07T22:56:44.113Z,79.52
2022-09-07T22:59:13.963Z,79.52
2022-09-07T23:01:42.774Z,79.71
2022-09-07T23:04:12.892Z,79.92
2022-09-07T23:06:43.333Z,80.03
2022-09-07T23:09:15.908Z,80.20
2022-09-07T23:11:46.409Z,80.33
2022-09-07T23:14:24.377Z,80.57
2022-09-07T23:16:52.782Z,80.78
2022-09-07T23:19:21.542Z,80.90
2022-09-07T23:21:49.811Z,81.18
2022-09-07T23:24:19.178Z,81.33
2022-09-07T23:26:47.704Z,81.50
2022-09-07T23:29:16.625Z,81.62
2022-09-07T23:31:46.637Z,81.72
2022-09-07T23:34:15.232Z,81.87
2022-09-07T23:36:43.553Z,81.88
2022-09-07T23:39:50.838Z,82.09
2022-09-07T23:42:19.222Z,82.31
2022-09-07T23:44:48.587Z,82.40
2022-09-07T23:47:16.899Z,82.34
2022-09-07T23:49:45.154Z,82.55
2022-09-07T23:52:13.435Z,82.56
2022-09-07T23:54:42.716Z,82.61
2022-09-07T23:57:11.005Z,82.56
2022-09-07T23:59:39.305Z,82.71
